Latest Weather Observations for Devonport Airport

IDT60801

Issued at 8:05 am EDT Tuesday 21 October 2014 (issued every 30 minutes, with the page automatically refreshed every 10 minutes)

About weather observations | Map of weather stations | Latest weather observations for TAS | Other Formats
Station Details ID: 091126 Name: DEVONPORT AIRPORT Lat: -41.17 Lon: 146.43 Height: 8.0 m
Data from the previous 72 hours. | See also: Recent months at Devonport Airport
Date/Time
EDT
Temp
°C
App
Temp
°C
Dew
Point
Rel
Hum
%
Delta-T
°C
Wind Press
QNH
hPa
Press
MSL
hPa
Rain
since 9 am
mm
Dir
 
Spd
km/h
Gust
km/h
Spd
kts
Gust
kts
21/08:00am 10.8 6.3 6.0 72 2.2 SE 19 20 10 11 1034.5 1034.5 0.0
21/07:30am 9.9 5.1 5.5 74 2.0 SSE 20 24 11 13 1034.0 1034.0 0.0
21/07:00am 9.5 5.3 5.9 78 1.6 SSE 17 20 9 11 1033.7 1033.7 0.0
21/06:30am 8.3 4.0 5.2 81 1.4 SSE 17 19 9 10 1033.5 1033.5 0.0
21/06:00am 8.0 3.6 4.9 81 1.4 SSE 17 20 9 11 1033.2 1033.2 0.0
21/05:30am 7.2 2.3 4.3 82 1.3 SSE 19 20 10 11 1033.1 1033.1 0.0
21/05:00am 7.0 1.9 4.3 83 1.2 SSE 20 22 11 12 1033.2 1033.2 0.0
21/04:30am 6.4 1.9 4.2 86 0.9 S 17 20 9 11 1033.5 1033.5 0.0
21/04:00am 6.0 1.0 3.8 86 0.9 S 19 20 10 11 1033.6 1033.6 0.0
21/03:30am 5.6 1.4 3.8 88 0.8 S 15 20 8 11 1033.7 1033.7 0.0
21/03:00am 5.0 0.6 2.9 86 0.8 S 15 19 8 10 1033.9 1033.9 0.0
21/02:30am 5.3 1.0 3.2 86 0.9 S 15 19 8 10 1034.2 1034.2 0.0
21/02:00am 5.7 1.1 3.5 86 0.9 S 17 19 9 10 1034.3 1034.3 0.0
21/01:30am 5.3 0.6 3.2 86 0.9 SSE 17 20 9 11 1034.4 1034.4 0.0
21/01:00am 5.9 1.2 3.4 84 1.0 S 17 19 9 10 1034.8 1034.8 0.0
21/12:30am 6.3 2.1 3.6 83 1.1 SSE 15 17 8 9 1034.9 1034.9 0.0
21/12:00am 6.2 2.0 3.9 85 1.0 SSE 15 19 8 10 1034.9 1034.9 0.0
 
Date/Time
EDT
Temp
°C
App
Temp
°C
Dew
Point
Rel
Hum
%
Delta-T
°C
Wind Press
QNH
hPa
Press
MSL
hPa
Rain
since 9 am
mm
Dir
 
Spd
km/h
Gust
km/h
Spd
kts
Gust
kts
20/11:30pm 6.3 2.4 3.6 83 1.1 SSE 13 17 7 9 1035.2 1035.2 0.0
20/11:00pm 7.0 2.8 3.6 79 1.4 SSE 15 17 8 9 1035.3 1035.3 0.0
20/10:30pm 7.6 3.4 4.0 78 1.6 SE 15 17 8 9 1035.3 1035.3 0.0
20/10:00pm 7.1 3.3 3.9 80 1.4 SSE 13 13 7 7 1035.3 1035.3 0.0
20/09:30pm 7.3 3.1 3.9 79 1.5 SSE 15 17 8 9 1035.3 1035.3 0.0
20/09:00pm 7.1 3.5 3.2 76 1.6 S 11 13 6 7 1035.0 1035.0 0.0
20/08:30pm 8.0 4.9 3.7 74 1.8 SSE 9 11 5 6 1034.6 1034.6 0.0
20/08:00pm 9.4 8.0 3.6 67 2.5 CALM 0 6 0 3 1034.3 1034.3 0.0
20/07:30pm 10.8 8.1 3.6 61 3.2 N 7 11 4 6 1034.1 1034.1 0.0
20/07:00pm 11.5 8.3 3.3 57 3.6 NNW 9 11 5 6 1033.8 1033.8 0.0
20/06:30pm 11.7 8.1 2.7 54 3.9 N 11 15 6 8 1033.7 1033.7 0.0
20/06:00pm 12.1 8.2 3.3 55 3.8 N 13 17 7 9 1033.8 1033.8 0.0
20/05:30pm 12.3 7.9 2.5 51 4.3 N 15 17 8 9 1033.8 1033.8 0.0
20/05:00pm 12.1 7.3 2.6 52 4.1 N 17 20 9 11 1033.7 1033.7 0.0
20/04:30pm 12.6 7.4 2.5 50 4.4 N 19 22 10 12 1033.7 1033.7 0.0
20/04:00pm 12.8 7.4 2.6 50 4.4 N 20 26 11 14 1033.7 1033.7 0.0
20/03:30pm 13.0 7.8 2.5 49 4.6 N 19 24 10 13 1033.8 1033.8 0.0
20/03:00pm 13.0 7.5 0.7 43 5.1 N 19 24 10 13 1033.9 1033.9 0.0
20/02:30pm 13.1 7.0 0.5 42 5.3 N 22 26 12 14 1034.1 1034.1 0.0
20/02:00pm 13.1 7.5 1.5 45 4.9 N 20 26 11 14 1034.3 1034.3 0.0
20/01:30pm 13.3 7.9 2.5 48 4.7 N 20 26 11 14 1034.5 1034.5 0.0
20/01:00pm 12.3 6.8 1.9 49 4.4 NNW 20 26 11 14 1034.7 1034.7 0.0
20/12:30pm 12.3 6.9 2.5 51 4.3 N 20 22 11 12 1034.6 1034.6 0.0
20/12:00pm 13.4 9.2 1.7 45 5.0 E 13 22 7 12 1034.6 1034.6 0.0
20/11:30am 12.7 8.8 1.4 46 4.8 E 11 20 6 11 1034.8 1034.8 0.0
20/11:00am 12.3 9.0 2.5 51 4.2 ENE 9 20 5 11 1034.9 1034.9 0.0
20/10:30am 11.5 8.1 1.7 51 4.2 SE 9 22 5 12 1034.8 1034.8 0.0
20/10:00am 11.0 7.5 1.5 52 3.9 SE 9 22 5 12 1034.7 1034.7 0.0
20/09:30am 10.0 5.3 0.6 52 3.8 SSE 15 19 8 10 1034.6 1034.6 0.0
20/09:00am 9.4 4.3 0.8 55 3.5 SE 17 20 9 11 1034.2 1034.2 0.0
20/08:30am 8.5 4.8 2.5 66 2.5 SSE 11 15 6 8 1034.1 1034.1 0.0
20/08:00am 7.2 3.9 2.3 71 2.0 S 9 13 5 7 1033.7 1033.7 0.0
20/07:30am 5.4 1.1 1.1 74 1.7 S 13 17 7 9 1033.1 1033.1 0.0
20/07:00am 3.5 -1.4 -0.3 76 1.4 S 15 19 8 10 1032.5 1032.5 0.0
20/06:30am 2.5 -2.8 -0.8 79 1.2 SE 17 19 9 10 1032.3 1032.3 0.0
20/06:00am 2.1 -1.4 -1.0 80 1.1 SE 7 13 4 7 1032.2 1032.2 0.0
20/05:30am 2.3 -1.0 -1.0 79 1.2 S 6 13 3 7 1031.9 1031.9 0.0
20/05:00am 2.8 -1.4 -0.6 78 1.2 S 11 15 6 8 1031.0 1031.0 0.0
20/04:30am 3.4 -0.8 -0.8 74 1.5 ESE 11 19 6 10 1030.7 1030.7 0.0
20/04:00am 2.6 -2.0 -0.7 79 1.2 SE 13 15 7 8 1030.3 1030.3 0.0
20/03:30am 3.4 -0.3 -0.2 77 1.3 SE 9 13 5 7 1030.3 1030.3 0.0
20/03:00am 3.9 0.2 0.2 77 1.4 SSW 9 15 5 8 1029.9 1029.9 0.0
20/02:30am 2.6 -0.3 -1.4 75 1.4 W 4 9 2 5 1029.9 1029.9 0.0
20/02:00am 4.5 0.1 0.3 74 1.6 S 13 17 7 9 1029.0 1029.0 0.0
20/01:30am 4.6 0.9 0.2 73 1.7 SSW 9 11 5 6 1029.0 1029.0 0.0
20/01:00am 4.7 0.6 -0.5 69 1.9 SSW 11 17 6 9 1028.6 1028.6 0.0
20/12:30am 6.0 1.6 0.6 68 2.1 W 13 15 7 8 1028.2 1028.2 0.0
20/12:00am 8.5 4.2 1.0 59 3.0 WSW 13 20 7 11 1027.5 1027.5 0.0
 
Date/Time
EDT
Temp
°C
App
Temp
°C
Dew
Point
Rel
Hum
%
Delta-T
°C
Wind Press
QNH
hPa
Press
MSL
hPa
Rain
since 9 am
mm
Dir
 
Spd
km/h
Gust
km/h
Spd
kts
Gust
kts
19/11:30pm 8.7 5.3 1.8 62 2.9 SW 9 13 5 7 1027.1 1027.1 0.0
19/11:00pm 8.8 4.2 1.7 61 2.9 SW 15 20 8 11 1026.2 1026.2 0.0
19/10:30pm 10.3 5.8 2.2 57 3.4 SW 15 24 8 13 1025.9 1025.9 0.0
19/10:00pm 10.9 4.0 2.7 57 3.5 SW 28 41 15 22 1025.1 1025.1 0.0
19/09:30pm 10.7 6.2 4.0 63 3.0 SW 17 24 9 13 1024.2 1024.2 0.0
19/09:00pm 11.2 5.4 4.2 62 3.1 SW 24 33 13 18 1023.2 1023.2 0.0
19/08:30pm 12.0 6.2 4.2 59 3.5 SW 24 35 13 19 1022.1 1022.1 0.0
19/08:00pm 12.3 5.8 4.5 59 3.5 WSW 28 41 15 22 1021.5 1021.5 0.0
19/07:30pm 12.5 7.2 5.2 61 3.4 WSW 22 30 12 16 1020.7 1020.7 0.0
19/07:00pm 12.7 7.1 5.4 61 3.4 WSW 24 30 13 16 1019.9 1019.9 0.0
19/06:30pm 12.8 7.7 5.9 63 3.2 WSW 22 30 12 16 1019.5 1019.5 0.0
19/06:00pm 14.5 7.5 5.8 56 4.1 WSW 32 43 17 23 1018.9 1018.9 0.0
19/05:30pm 15.7 8.8 7.2 57 4.2 W 33 44 18 24 1018.1 1018.1 0.0
19/05:04pm 16.8 9.8 6.9 52 4.9 WSW 33 52 18 28 1017.1 1017.2 0.0
19/05:00pm 17.3 11.0 7.6 53 4.9 WSW 30 39 16 21 1016.9 1017.0 0.0
19/04:30pm 18.2 12.4 6.4 46 5.8 W 26 37 14 20 1016.7 1016.8 0.0
19/04:17pm 18.1 12.3 7.8 51 5.2 WSW 28 39 15 21 1016.6 1016.7 0.0
19/04:00pm 18.6 15.0 8.3 51 5.3 SW 17 20 9 11 1015.6 1015.7 0.0
19/03:30pm 19.3 14.7 8.3 49 5.7 WSW 22 33 12 18 1015.4 1015.5 0.0
19/03:00pm 20.7 14.4 9.0 47 6.2 WSW 32 48 17 26 1015.6 1015.7 0.0
19/02:35pm 20.7 14.3 8.4 45 6.4 WSW 32 50 17 27 1015.7 1015.8 0.0
19/02:30pm 20.1 15.0 10.5 54 5.2 W 28 41 15 22 1015.7 1015.8 0.0
19/02:00pm 17.3 12.0 13.0 76 2.4 NW 33 43 18 23 1015.8 1015.9 0.0
19/01:30pm 16.5 10.8 13.0 80 1.9 NW 35 44 19 24 1015.9 1016.0 0.0
19/01:00pm 16.2 10.9 13.1 82 1.7 NW 33 43 18 23 1016.4 1016.5 0.0
19/12:30pm 15.2 9.8 12.3 83 1.6 NNW 32 41 17 22 1016.1 1016.2 0.0
19/12:00pm 15.7 10.8 12.6 82 1.7 NNW 30 35 16 19 1016.5 1016.6 0.0
19/11:30am 15.7 12.5 13.0 84 1.5 NNW 22 28 12 15 1017.0 1017.1 0.0
19/11:00am 15.1 12.1 12.4 84 1.5 NNW 20 26 11 14 1017.4 1017.5 0.0
19/10:30am 15.4 11.8 12.9 85 1.4 NW 24 30 13 16 1017.7 1017.8 0.0
19/10:00am 14.4 11.3 12.1 86 1.2 NW 20 26 11 14 1018.0 1018.0 0.0
19/09:30am 14.0 11.7 11.9 87 1.1 NW 15 20 8 11 1017.6 1017.7 0.0
19/09:00am 13.9 11.8 12.3 90 0.9 NW 15 19 8 10 1017.6 1017.7 0.2
19/08:30am 13.4 12.7 12.1 92 0.7 NW 7 9 4 5 1017.5 1017.6 0.2
19/08:00am 11.9 11.1 11.0 94 0.5 S 6 9 3 5 1017.2 1017.3 0.2
19/07:30am 10.2 8.0 9.3 94 0.4 S 11 15 6 8 1017.6 1017.7 0.2
19/07:00am 8.9 6.0 8.0 94 0.4 S 13 15 7 8 1017.3 1017.4 0.2
19/06:30am 9.0 6.1 8.1 94 0.4 S 13 17 7 9 1017.0 1017.1 0.2
19/06:00am 9.0 6.1 8.1 94 0.4 S 13 15 7 8 1016.8 1016.9 0.2
19/05:30am 9.2 6.3 8.3 94 0.4 SSE 13 15 7 8 1016.6 1016.7 0.2
19/05:00am 9.2 6.0 8.3 94 0.4 S 15 17 8 9 1017.1 1017.2 0.2
19/04:30am 9.5 6.7 8.6 94 0.4 S 13 15 7 8 1017.4 1017.5 0.2
19/04:00am 10.2 8.0 9.3 94 0.4 SSE 11 13 6 7 1018.0 1018.0 0.2
19/03:30am 9.7 6.9 8.6 93 0.5 SSE 13 15 7 8 1018.6 1018.6 0.2
19/03:00am 9.6 6.8 8.5 93 0.5 S 13 17 7 9 1019.1 1019.1 0.2
19/02:30am 9.8 7.0 8.7 93 0.5 S 13 15 7 8 1019.5 1019.5 0.2
19/02:00am 10.3 7.7 9.2 93 0.5 SSE 13 17 7 9 1019.9 1019.9 0.2
19/01:30am 10.4 7.4 9.2 92 0.6 SSE 15 19 8 10 1020.3 1020.3 0.2
19/01:00am 10.4 7.4 9.2 92 0.6 SSE 15 17 8 9 1020.6 1020.6 0.2
19/12:41am 10.9 8.3 9.5 91 0.7 SSE 13 15 7 8 1020.8 1020.8 0.2
19/12:30am 10.9 8.3 9.5 91 0.7 SSE 13 15 7 8 1021.2 1021.2 0.2
19/12:00am 11.7 10.1 10.3 91 0.7 SSE 9 11 5 6 1021.3 1021.3 0.2
 
Date/Time
EDT
Temp
°C
App
Temp
°C
Dew
Point
Rel
Hum
%
Delta-T
°C
Wind Press
QNH
hPa
Press
MSL
hPa
Rain
since 9 am
mm
Dir
 
Spd
km/h
Gust
km/h
Spd
kts
Gust
kts
18/11:30pm 12.4 11.4 11.0 91 0.7 E 7 7 4 4 1021.5 1021.5 0.2
18/11:00pm 12.4 11.5 10.8 90 0.8 E 6 9 3 5 1021.8 1021.8 0.2
18/10:30pm 12.5 11.1 10.9 90 0.8 E 9 13 5 7 1022.0 1022.0 0.2
18/10:00pm 12.4 12.3 10.8 90 0.8 E 2 7 1 4 1022.7 1022.7 0.2
18/09:50pm 12.4 11.3 10.6 89 0.9 E 7 11 4 6 1022.5 1022.5 0.2
18/09:30pm 12.2 11.0 10.4 89 0.9 E 7 9 4 5 1022.4 1022.4 0.2
18/09:00pm 12.1 10.1 10.3 89 0.9 E 11 13 6 7 1022.5 1022.5 0.2
18/08:30pm 12.0 10.9 9.9 87 1.1 ENE 6 11 3 6 1023.0 1023.0 0.2
18/08:00pm 12.2 10.6 10.1 87 1.1 E 9 13 5 7 1023.0 1023.0 0.2
18/07:30pm 12.7 11.5 10.2 85 1.3 NNE 7 9 4 5 1023.7 1023.7 0.2
18/07:00pm 13.0 11.5 10.4 84 1.3 NNE 9 11 5 6 1023.7 1023.7 0.2
18/06:30pm 13.1 11.5 10.3 83 1.4 NE 9 11 5 6 1023.9 1023.9 0.2
18/06:00pm 13.0 11.4 10.2 83 1.4 ENE 9 13 5 7 1023.7 1023.7 0.2
18/05:30pm 13.2 11.4 9.6 79 1.8 ENE 9 17 5 9 1023.6 1023.6 0.0
18/05:00pm 13.4 11.6 9.3 76 2.1 NE 9 11 5 6 1023.9 1023.9 0.0
18/04:30pm 13.6 11.7 9.1 74 2.3 NE 9 11 5 6 1024.2 1024.2 0.0
18/04:00pm 14.0 11.8 9.4 74 2.3 NE 11 15 6 8 1024.0 1024.0 0.0
18/03:30pm 13.9 11.2 9.1 73 2.4 NE 13 17 7 9 1024.4 1024.4 0.0
18/03:00pm 14.1 12.2 8.9 71 2.6 NNW 9 13 5 7 1025.4 1025.4 0.0
18/02:30pm 14.6 11.2 9.2 70 2.8 N 17 20 9 11 1025.7 1025.7 0.0
18/02:00pm 14.5 10.5 8.9 69 2.8 NNE 20 24 11 13 1025.6 1025.6 0.0
18/01:30pm 14.7 11.3 9.1 69 2.9 N 17 24 9 13 1026.0 1026.0 0.0
18/01:00pm 15.1 11.1 9.2 68 3.0 NNE 20 24 11 13 1026.3 1026.3 0.0
18/12:30pm 14.7 10.7 9.1 69 2.9 NNE 20 24 11 13 1026.4 1026.4 0.0
18/12:00pm 14.6 10.8 9.0 69 2.8 NNE 19 22 10 12 1027.0 1027.0 0.0
18/11:30am 14.2 10.0 8.4 68 2.9 NNE 20 24 11 13 1027.3 1027.3 0.0
18/11:00am 14.7 10.8 9.3 70 2.7 N 20 24 11 13 1027.6 1027.6 0.0
18/10:30am 14.6 10.8 9.0 69 2.9 N 19 24 10 13 1027.7 1027.7 0.0
18/10:00am 14.1 10.2 8.5 69 2.8 N 19 22 10 12 1028.0 1028.0 0.0
18/09:30am 14.6 11.3 9.4 71 2.7 N 17 22 9 12 1028.3 1028.3 0.0
18/09:00am 13.5 10.4 8.8 73 2.3 N 15 19 8 10 1028.0 1028.0 0.0
18/08:30am 13.6 11.0 9.3 75 2.2 N 13 19 7 10 1028.2 1028.2 0.0

Other Formats:

Comma delimited format used in spreadsheet applications
http://www.bom.gov.au/fwo/IDT60801/IDT60801.95960.axf

JavaScript Object Notation format (JSON) in row-major order
http://www.bom.gov.au/fwo/IDT60801/IDT60801.95960.json